Shanghai Express — DPCK — position and weather

sailwx.info

Track history (hours):
 
Tides and Currents Weather Stations Pressure Air Temp Water Temp Dewpoint Dewpoint Depression Visibility Wind Speed Wind Dir Waves Ship Positions

Shanghai Express

Last reported at 2018-Apr-21 23:41 UTC. Time now 2018-Apr-27 05:02 UTC.
Position N 34°49' E 140°35'.

Length 320.6 m; beam 42.8 m; draft 14.5 m.

Type: Ship. MMSI: 211367460.

Date/timePositionNaut miles runAvg speedWind from/ knotsBaromVisibWave heightAir tempDewpointWater temp
2018-Apr-21 23:41N 34°49' E 140°35'723.1
2018-Apr-21 23:24N 34°45' E 140°28'1322.8
2018-Apr-21 22:49N 34°38' E 140°14'821.9
2018-Apr-21 22:27N 34°34' E 140°06'1222.3
2018-Apr-21 21:54N 34°27' E 139°54'1222.5
2018-Apr-21 21:22N 34°20' E 139°41'823.2
2018-Apr-21 21:00N 34°16' E 139°33'1222.5
2018-Apr-21 20:27N 34°09' E 139°20'1321.5
2018-Apr-21 19:50N 34°01' E 139°08'823.1
2018-Apr-21 19:30N 33°56' E 139°01'1322.8
2018-Apr-21 18:56N 33°49' E 138°47'1022.4
2018-Apr-21 18:29N 33°45' E 138°36'1020.9
2018-Apr-21 18:00N 33°41' E 138°25'1020.0
2018-Apr-21 17:30N 33°37' E 138°14'1219.8
2018-Apr-21 16:53N 33°33' E 138°01'820.1
2018-Apr-21 16:28N 33°29' E 137°51'919.9
2018-Apr-21 16:00N 33°26' E 137°41'1020.1
2018-Apr-21 15:30N 33°21' E 137°30'1119.4
2018-Apr-21 14:57N 33°17' E 137°18'15520.5
2018-Apr-21 07:25N 32°16' E 134°29'921.6
2018-Apr-21 07:00N 32°12' E 134°20'1121.7
2018-Apr-21 06:30N 32°08' E 134°08'1121.8
2018-Apr-21 05:59N 32°03' E 133°56'1021.0
2018-Apr-21 05:30N 31°59' E 133°45'1220.9
2018-Apr-21 04:55N 31°54' E 133°32'1422.8
2018-Apr-21 04:19N 31°49' E 133°17'  
2018-Apr-17 08:10N 31°06' E 122°26'614.0
2018-Apr-17 07:46N 31°06' E 122°20'413.9
2018-Apr-17 07:31N 31°08' E 122°16'814.7
2018-Apr-17 06:58N 31°12' E 122°08'1013.6
2018-Apr-17 06:15N 31°15' E 121°57'20 0.5
2018-Apr-15 16:46N 31°22' E 121°35'0 0.7
2018-Apr-15 16:24N 31°23' E 121°35'3 5.6
2018-Apr-15 15:55N 31°22' E 121°38'710.5
2018-Apr-15 15:12N 31°18' E 121°46'3 9.7
2018-Apr-15 14:53N 31°17' E 121°49'45413.6
2018-Apr-14 05:34N 34°28' E 129°59'116.3
2018-Apr-14 05:28N 34°29' E 130°01'63317.3
2018-Apr-12 16:49N 41°19' E 140°13'513.9
2018-Apr-12 16:28N 41°22' E 140°18'715.0
2018-Apr-12 16:00N 41°26' E 140°25'816.3
2018-Apr-12 15:30N 41°30' E 140°35'715.1
2018-Apr-12 15:00N 41°35' E 140°43'714.5
2018-Apr-12 14:31N 41°38' E 140°51'713.2
2018-Apr-12 14:00N 41°40' E 141°00'816.0
2018-Apr-12 13:30N 41°42' E 141°10'917.6
2018-Apr-12 13:00N 41°43' E 141°22'917.2
2018-Apr-12 12:30N 41°44' E 141°33'  
Track history (hours):
 
Tides and Currents Weather Stations Pressure Air Temp Water Temp Dewpoint Dewpoint Depression Visibility Wind Speed Wind Dir Waves Ship Positions

Shanghai Express

Last reported at 2018-Apr-21 23:41 UTC. Time now 2018-Apr-27 05:02 UTC.
Position N 34°49' E 140°35'.

Length 320.6 m; beam 42.8 m; draft 14.5 m.

Type: Ship. MMSI: 211367460.

Date/timePositionNaut miles runAvg speedWind from/ knotsBaromVisibWave heightAir tempDewpointWater temp
2018-Apr-21 23:41N 34°49' E 140°35'723.1
2018-Apr-21 23:24N 34°45' E 140°28'1322.8
2018-Apr-21 22:49N 34°38' E 140°14'821.9
2018-Apr-21 22:27N 34°34' E 140°06'1222.3
2018-Apr-21 21:54N 34°27' E 139°54'1222.5
2018-Apr-21 21:22N 34°20' E 139°41'823.2
2018-Apr-21 21:00N 34°16' E 139°33'1222.5
2018-Apr-21 20:27N 34°09' E 139°20'1321.5
2018-Apr-21 19:50N 34°01' E 139°08'823.1
2018-Apr-21 19:30N 33°56' E 139°01'1322.8
2018-Apr-21 18:56N 33°49' E 138°47'1022.4
2018-Apr-21 18:29N 33°45' E 138°36'1020.9
2018-Apr-21 18:00N 33°41' E 138°25'1020.0
2018-Apr-21 17:30N 33°37' E 138°14'1219.8
2018-Apr-21 16:53N 33°33' E 138°01'820.1
2018-Apr-21 16:28N 33°29' E 137°51'919.9
2018-Apr-21 16:00N 33°26' E 137°41'1020.1
2018-Apr-21 15:30N 33°21' E 137°30'1119.4
2018-Apr-21 14:57N 33°17' E 137°18'15520.5
2018-Apr-21 07:25N 32°16' E 134°29'921.6
2018-Apr-21 07:00N 32°12' E 134°20'1121.7
2018-Apr-21 06:30N 32°08' E 134°08'1121.8
2018-Apr-21 05:59N 32°03' E 133°56'1021.0
2018-Apr-21 05:30N 31°59' E 133°45'1220.9
2018-Apr-21 04:55N 31°54' E 133°32'1422.8
2018-Apr-21 04:19N 31°49' E 133°17'  
2018-Apr-17 08:10N 31°06' E 122°26'614.0
2018-Apr-17 07:46N 31°06' E 122°20'413.9
2018-Apr-17 07:31N 31°08' E 122°16'814.7
2018-Apr-17 06:58N 31°12' E 122°08'1013.6
2018-Apr-17 06:15N 31°15' E 121°57'20 0.5
2018-Apr-15 16:46N 31°22' E 121°35'0 0.7
2018-Apr-15 16:24N 31°23' E 121°35'3 5.6
2018-Apr-15 15:55N 31°22' E 121°38'710.5
2018-Apr-15 15:12N 31°18' E 121°46'3 9.7
2018-Apr-15 14:53N 31°17' E 121°49'45413.6
2018-Apr-14 05:34N 34°28' E 129°59'116.3
2018-Apr-14 05:28N 34°29' E 130°01'63317.3
2018-Apr-12 16:49N 41°19' E 140°13'513.9
2018-Apr-12 16:28N 41°22' E 140°18'715.0
2018-Apr-12 16:00N 41°26' E 140°25'816.3
2018-Apr-12 15:30N 41°30' E 140°35'715.1
2018-Apr-12 15:00N 41°35' E 140°43'714.5
2018-Apr-12 14:31N 41°38' E 140°51'713.2
2018-Apr-12 14:00N 41°40' E 141°00'816.0
2018-Apr-12 13:30N 41°42' E 141°10'917.6
2018-Apr-12 13:00N 41°43' E 141°22'917.2
2018-Apr-12 12:30N 41°44' E 141°33'  

Dump ship's entire track history